Time;durP1;ratioP1;P1;durP2;ratioP2;P2;SDS_P1;SDS_P2;PMS_P1;PMS_P2;Temp;Humidity;BMP_temperature;BMP_pressure;BME280_temperature;BME280_humidity;BME280_pressure;Samples;Min_cycle;Max_cycle;Signal;HPM_P1;HPM_P2
2023/06/21 00:00:28;;;;;;;6.30;5.70;;;;;;;;;;4999463;28;20045;-79
2023/06/21 00:02:54;;;;;;;6.43;5.57;;;;;;;;;;5006506;28;20409;-79
2023/06/21 00:05:19;;;;;;;6.18;5.40;;;;;;;;;;4981630;28;20093;-79
2023/06/21 00:07:47;;;;;;;7.43;6.10;;;;;;;;;;5009126;28;20052;-80
2023/06/21 00:10:13;;;;;;;6.00;5.40;;;;;;;;;;5007085;28;20041;-79
2023/06/21 00:12:38;;;;;;;7.35;5.78;;;;;;;;;;5012983;28;20043;-78
2023/06/21 00:15:04;;;;;;;6.03;5.43;;;;;;;;;;4976945;28;20461;-80
2023/06/21 00:17:29;;;;;;;6.25;5.55;;;;;;;;;;5001101;28;20054;-80
2023/06/21 00:19:55;;;;;;;6.18;5.60;;;;;;;;;;4972037;28;20115;-80
2023/06/21 00:22:24;;;;;;;7.28;5.50;;;;;;;;;;5012642;28;20048;-78
2023/06/21 00:24:49;;;;;;;7.40;5.30;;;;;;;;;;5004890;28;20055;-78
2023/06/21 00:27:16;;;;;;;6.00;4.88;;;;;;;;;;4989924;28;20080;-79
2023/06/21 00:29:42;;;;;;;5.82;5.30;;;;;;;;;;5013220;28;20041;-78
2023/06/21 00:32:07;;;;;;;6.00;5.35;;;;;;;;;;5009195;28;20135;-78
2023/06/21 00:34:34;;;;;;;5.60;5.00;;;;;;;;;;5000187;28;20035;-79
2023/06/21 00:37:02;;;;;;;6.63;5.40;;;;;;;;;;4985564;28;20041;-80
2023/06/21 00:39:27;;;;;;;6.10;5.50;;;;;;;;;;5005269;28;20040;-79
2023/06/21 00:41:53;;;;;;;6.03;5.47;;;;;;;;;;5005910;28;20030;-79
2023/06/21 00:44:18;;;;;;;6.13;5.53;;;;;;;;;;4991567;28;20124;-79
2023/06/21 00:46:44;;;;;;;5.95;5.45;;;;;;;;;;4997541;28;20045;-80
2023/06/21 00:49:09;;;;;;;7.38;5.78;;;;;;;;;;4983893;28;20430;-78
2023/06/21 00:51:36;;;;;;;6.05;5.45;;;;;;;;;;5002690;28;20042;-79
2023/06/21 00:54:02;;;;;;;7.32;6.05;;;;;;;;;;4987318;28;20204;-80
2023/06/21 00:56:28;;;;;;;5.65;5.15;;;;;;;;;;5017303;28;20116;-80
2023/06/21 00:58:55;;;;;;;6.10;5.50;;;;;;;;;;5002073;28;20350;-80
2023/06/21 01:01:20;;;;;;;7.57;5.75;;;;;;;;;;4993453;28;20124;-79
2023/06/21 01:03:46;;;;;;;6.10;5.50;;;;;;;;;;4968899;28;20034;-80
2023/06/21 01:06:25;;;;;;;5.90;5.30;;;;;;;;;;4992611;28;20080;-80
2023/06/21 01:09:06;;;;;;;7.10;6.40;;;;;;;;;;5003009;28;20038;-79
2023/06/21 01:11:51;;;;;;;6.75;6.10;;;;;;;;;;5006940;28;20045;-80
2023/06/21 01:15:02;;;;;;;6.80;6.10;;;;;;;;;;4968059;28;20090;-79
2023/06/21 01:17:31;;;;;;;7.50;6.70;;;;;;;;;;4916089;29;20138;-79
2023/06/21 01:19:57;;;;;;;8.23;6.00;;;;;;;;;;4993849;28;20038;-78
2023/06/21 01:22:22;;;;;;;10.00;7.82;;;;;;;;;;4988201;28;20100;-78
2023/06/21 01:24:51;;;;;;;6.82;6.10;;;;;;;;;;5014152;28;20426;-80
2023/06/21 01:28:01;;;;;;;8.30;7.50;;;;;;;;;;4970623;28;20056;-79
2023/06/21 01:30:28;;;;;;;8.65;7.75;;;;;;;;;;4983262;28;20045;-79
2023/06/21 01:32:55;;;;;;;7.22;6.53;;;;;;;;;;5006093;28;20051;-79
2023/06/21 01:35:22;;;;;;;7.25;6.55;;;;;;;;;;4998151;28;20090;-79
2023/06/21 01:37:51;;;;;;;7.50;6.72;;;;;;;;;;5015128;28;20117;-79
2023/06/21 01:40:17;;;;;;;8.02;7.22;;;;;;;;;;5007166;28;20049;-80
2023/06/21 01:42:42;;;;;;;7.78;6.82;;;;;;;;;;4983889;28;20030;-79
2023/06/21 01:45:09;;;;;;;6.03;5.43;;;;;;;;;;5023989;28;20030;-79
2023/06/21 01:47:35;;;;;;;6.85;6.20;;;;;;;;;;5000019;28;20041;-79
2023/06/21 01:50:08;;;;;;;5.88;4.95;;;;;;;;;;4990768;28;20035;-79
2023/06/21 01:52:34;;;;;;;4.90;4.50;;;;;;;;;;5016732;28;20041;-79
2023/06/21 01:55:00;;;;;;;9.95;8.23;;;;;;;;;;5019542;28;20050;-79
2023/06/21 01:57:27;;;;;;;9.25;8.35;;;;;;;;;;5015536;28;20054;-80
2023/06/21 01:59:53;;;;;;;8.63;7.82;;;;;;;;;;5016440;28;20033;-79
2023/06/21 02:02:21;;;;;;;10.63;8.43;;;;;;;;;;4976795;28;20536;-79
2023/06/21 02:04:47;;;;;;;8.25;6.75;;;;;;;;;;5008407;28;20038;-79
2023/06/21 02:07:14;;;;;;;10.40;8.40;;;;;;;;;;4982089;28;20065;-79
2023/06/21 02:09:42;;;;;;;10.02;8.27;;;;;;;;;;5015512;28;20112;-80
2023/06/21 02:12:08;;;;;;;7.75;6.80;;;;;;;;;;5017288;28;20509;-80
2023/06/21 02:14:34;;;;;;;8.18;7.30;;;;;;;;;;5019843;28;20049;-80
2023/06/21 02:16:59;;;;;;;6.95;6.32;;;;;;;;;;5002137;28;20049;-79
2023/06/21 02:19:24;;;;;;;8.13;7.38;;;;;;;;;;4997555;28;20274;-80
2023/06/21 02:21:50;;;;;;;9.88;7.65;;;;;;;;;;4996588;28;20273;-79
2023/06/21 02:24:17;;;;;;;6.90;5.53;;;;;;;;;;5020326;28;21213;-79
2023/06/21 02:26:42;;;;;;;6.30;5.70;;;;;;;;;;5006772;28;20037;-78
2023/06/21 02:29:07;;;;;;;8.60;6.85;;;;;;;;;;4991414;28;20397;-78
2023/06/21 02:31:33;;;;;;;8.80;7.00;;;;;;;;;;5005600;28;20486;-79
2023/06/21 02:33:59;;;;;;;11.80;6.97;;;;;;;;;;5011721;28;20095;-78
2023/06/21 02:36:24;;;;;;;7.82;7.03;;;;;;;;;;5008169;28;20613;-80
2023/06/21 02:38:49;;;;;;;8.07;6.90;;;;;;;;;;5006350;28;20155;-78
2023/06/21 02:41:15;;;;;;;5.18;4.70;;;;;;;;;;4999749;28;20045;-80
2023/06/21 02:43:40;;;;;;;6.05;5.35;;;;;;;;;;4971792;28;20042;-80
2023/06/21 02:46:05;;;;;;;10.05;8.25;;;;;;;;;;5000418;28;20038;-78
2023/06/21 02:48:31;;;;;;;7.55;6.07;;;;;;;;;;5004116;28;20622;-78
2023/06/21 02:50:57;;;;;;;9.15;8.07;;;;;;;;;;5001181;28;20086;-78
2023/06/21 02:53:22;;;;;;;10.45;8.10;;;;;;;;;;4997649;28;20044;-77
2023/06/21 02:55:47;;;;;;;8.95;7.63;;;;;;;;;;5013948;28;20029;-77
2023/06/21 02:58:13;;;;;;;8.95;7.60;;;;;;;;;;5003644;28;20034;-78
2023/06/21 03:00:40;;;;;;;6.35;5.45;;;;;;;;;;5005673;28;20045;-78
2023/06/21 03:03:06;;;;;;;8.02;7.13;;;;;;;;;;5002045;28;20034;-78
2023/06/21 03:05:33;;;;;;;9.55;7.70;;;;;;;;;;4992541;28;20034;-78
2023/06/21 03:08:00;;;;;;;7.75;4.88;;;;;;;;;;4998792;28;20041;-78
2023/06/21 03:10:26;;;;;;;8.50;7.18;;;;;;;;;;5004655;28;20116;-78
2023/06/21 03:12:52;;;;;;;10.77;7.32;;;;;;;;;;4991661;28;20035;-78
2023/06/21 03:15:18;;;;;;;8.35;6.60;;;;;;;;;;5001578;28;20249;-77
2023/06/21 03:17:44;;;;;;;6.68;6.05;;;;;;;;;;5006347;28;20041;-78
2023/06/21 03:20:13;;;;;;;7.53;6.63;;;;;;;;;;4994194;28;20049;-79
2023/06/21 03:22:43;;;;;;;8.20;6.90;;;;;;;;;;5007688;28;20033;-78
2023/06/21 03:25:10;;;;;;;5.28;4.75;;;;;;;;;;4996255;28;20048;-79
2023/06/21 03:27:35;;;;;;;7.38;6.18;;;;;;;;;;4967783;28;20547;-78
2023/06/21 03:30:01;;;;;;;6.68;6.07;;;;;;;;;;4996714;28;20041;-78
2023/06/21 03:32:27;;;;;;;11.45;6.22;;;;;;;;;;4994303;28;20041;-78
2023/06/21 03:34:52;;;;;;;7.35;6.65;;;;;;;;;;5012881;28;20033;-79
2023/06/21 03:37:18;;;;;;;8.30;7.07;;;;;;;;;;5012804;28;20041;-80
2023/06/21 03:39:44;;;;;;;7.05;6.32;;;;;;;;;;5005396;28;20345;-80
2023/06/21 03:42:10;;;;;;;8.82;7.00;;;;;;;;;;5014751;28;20525;-80
2023/06/21 03:44:36;;;;;;;5.82;5.13;;;;;;;;;;4986466;28;20101;-79
2023/06/21 03:47:02;;;;;;;7.93;5.93;;;;;;;;;;5011213;28;20036;-80
2023/06/21 03:49:27;;;;;;;6.35;5.75;;;;;;;;;;5006870;28;20484;-80
2023/06/21 03:51:53;;;;;;;8.30;7.28;;;;;;;;;;5013726;28;20037;-80
2023/06/21 03:54:18;;;;;;;8.13;6.80;;;;;;;;;;4996210;28;21628;-78
2023/06/21 03:56:44;;;;;;;8.15;7.35;;;;;;;;;;5014989;28;20040;-78
2023/06/21 03:59:09;;;;;;;6.35;5.75;;;;;;;;;;5001386;28;20639;-78
2023/06/21 04:01:35;;;;;;;7.93;7.15;;;;;;;;;;5007462;28;20041;-80
2023/06/21 04:04:00;;;;;;;10.18;7.40;;;;;;;;;;4989881;28;20068;-79
2023/06/21 04:06:25;;;;;;;11.00;7.63;;;;;;;;;;5003450;28;20112;-79
2023/06/21 04:08:51;;;;;;;10.45;7.28;;;;;;;;;;5009489;28;20128;-79
2023/06/21 04:11:17;;;;;;;9.52;7.10;;;;;;;;;;5010577;28;20061;-79
2023/06/21 04:13:42;;;;;;;8.00;6.22;;;;;;;;;;5003541;28;20512;-80
2023/06/21 04:16:07;;;;;;;11.20;7.45;;;;;;;;;;5011717;28;20080;-80
2023/06/21 04:18:33;;;;;;;11.00;8.35;;;;;;;;;;5012206;28;20367;-79
2023/06/21 04:20:58;;;;;;;11.88;7.63;;;;;;;;;;4981896;28;20509;-78
2023/06/21 04:23:26;;;;;;;8.75;7.38;;;;;;;;;;4982542;28;20121;-78
2023/06/21 04:25:51;;;;;;;11.65;7.43;;;;;;;;;;5013275;28;20437;-80
2023/06/21 04:28:17;;;;;;;14.80;8.00;;;;;;;;;;5006833;28;20041;-80
2023/06/21 04:30:42;;;;;;;13.00;7.10;;;;;;;;;;4994522;28;20034;-82
2023/06/21 04:33:08;;;;;;;7.80;6.90;;;;;;;;;;4991246;28;20445;-80
2023/06/21 04:35:33;;;;;;;10.82;7.45;;;;;;;;;;4985356;28;20531;-79
2023/06/21 04:38:00;;;;;;;8.85;6.80;;;;;;;;;;5011338;28;20084;-79
2023/06/21 04:40:25;;;;;;;7.47;6.05;;;;;;;;;;4998104;28;20576;-79
2023/06/21 04:43:02;;;;;;;10.38;7.05;;;;;;;;;;4992631;28;20038;-79
2023/06/21 04:45:27;;;;;;;8.40;6.60;;;;;;;;;;5001760;28;20041;-80
2023/06/21 04:47:57;;;;;;;9.65;7.53;;;;;;;;;;5003793;28;20045;-78
2023/06/21 04:50:23;;;;;;;5.93;5.10;;;;;;;;;;4995121;28;20048;-78
2023/06/21 04:52:49;;;;;;;7.88;7.07;;;;;;;;;;5010059;28;20395;-80
2023/06/21 04:55:17;;;;;;;5.78;4.85;;;;;;;;;;4986938;28;20030;-79
2023/06/21 04:57:47;;;;;;;7.25;5.82;;;;;;;;;;4986940;28;20046;-79
2023/06/21 05:00:14;;;;;;;6.20;5.60;;;;;;;;;;5005424;28;20048;-79
2023/06/21 05:02:39;;;;;;;7.88;7.03;;;;;;;;;;4979436;28;20064;-78
2023/06/21 05:05:05;;;;;;;7.80;6.68;;;;;;;;;;4990744;28;20772;-79
2023/06/21 05:07:30;;;;;;;9.25;7.80;;;;;;;;;;5007342;28;20040;-80
2023/06/21 05:09:56;;;;;;;6.93;6.20;;;;;;;;;;4999087;28;20057;-82
2023/06/21 05:12:21;;;;;;;9.07;6.68;;;;;;;;;;5014740;28;20106;-81
2023/06/21 05:14:53;;;;;;;7.78;6.53;;;;;;;;;;4990444;28;20037;-82
2023/06/21 05:17:20;;;;;;;6.22;5.35;;;;;;;;;;4950950;28;20156;-79
2023/06/21 05:19:46;;;;;;;8.65;6.18;;;;;;;;;;5000541;28;20073;-80
2023/06/21 05:22:11;;;;;;;6.22;5.63;;;;;;;;;;4990493;28;20502;-80
2023/06/21 05:24:40;;;;;;;10.65;7.10;;;;;;;;;;5003288;28;20034;-80
2023/06/21 05:27:05;;;;;;;8.10;6.95;;;;;;;;;;4988346;28;20121;-80
2023/06/21 05:29:31;;;;;;;6.28;5.47;;;;;;;;;;4990409;28;20157;-80
2023/06/21 05:31:56;;;;;;;6.47;5.88;;;;;;;;;;5010638;28;20341;-81
2023/06/21 05:34:22;;;;;;;5.70;5.10;;;;;;;;;;4986665;28;20052;-80
2023/06/21 05:36:47;;;;;;;7.00;6.30;;;;;;;;;;5010516;28;20030;-81
2023/06/21 05:39:13;;;;;;;7.82;7.03;;;;;;;;;;4994630;28;20426;-81
2023/06/21 05:41:38;;;;;;;6.80;5.55;;;;;;;;;;4984890;28;20060;-80
2023/06/21 05:44:04;;;;;;;5.95;5.35;;;;;;;;;;5002365;28;20083;-81
2023/06/21 05:46:29;;;;;;;10.30;7.60;;;;;;;;;;4994789;28;20033;-80
2023/06/21 05:48:54;;;;;;;5.88;5.35;;;;;;;;;;4989329;28;20045;-80
2023/06/21 05:51:20;;;;;;;4.90;4.50;;;;;;;;;;4988409;28;20475;-81
2023/06/21 05:53:45;;;;;;;9.27;6.90;;;;;;;;;;5004713;28;20038;-79
2023/06/21 05:56:10;;;;;;;7.05;6.35;;;;;;;;;;5009818;28;20049;-79
2023/06/21 05:58:36;;;;;;;6.30;5.20;;;;;;;;;;4996760;28;20045;-79
2023/06/21 06:01:02;;;;;;;7.57;5.93;;;;;;;;;;5005521;28;20187;-80
2023/06/21 06:03:28;;;;;;;7.88;7.07;;;;;;;;;;5010992;28;20037;-78
2023/06/21 06:05:53;;;;;;;7.40;6.63;;;;;;;;;;5008955;28;20044;-79
2023/06/21 06:08:19;;;;;;;9.48;8.23;;;;;;;;;;4987318;28;20123;-80
2023/06/21 06:10:44;;;;;;;5.45;4.95;;;;;;;;;;4990455;28;20041;-79
2023/06/21 06:13:09;;;;;;;6.72;5.55;;;;;;;;;;4991188;28;20034;-79
2023/06/21 06:15:35;;;;;;;7.90;7.10;;;;;;;;;;5010534;28;20034;-79
2023/06/21 06:18:01;;;;;;;10.93;7.70;;;;;;;;;;5006886;28;20085;-78
2023/06/21 06:20:26;;;;;;;9.43;8.25;;;;;;;;;;4985703;28;20030;-78
2023/06/21 06:22:52;;;;;;;11.73;8.88;;;;;;;;;;5002015;28;20041;-78
2023/06/21 06:25:17;;;;;;;7.03;6.32;;;;;;;;;;5012119;28;20037;-79
2023/06/21 06:27:43;;;;;;;9.48;8.48;;;;;;;;;;4993640;28;20505;-78
2023/06/21 06:30:08;;;;;;;7.85;7.10;;;;;;;;;;5008195;28;20048;-84
2023/06/21 06:32:34;;;;;;;10.20;8.48;;;;;;;;;;4986692;28;20033;-79
2023/06/21 06:34:59;;;;;;;9.68;8.55;;;;;;;;;;4973216;28;20033;-79
2023/06/21 06:37:24;;;;;;;10.35;8.45;;;;;;;;;;4990428;28;20060;-79
2023/06/21 06:39:52;;;;;;;8.13;7.32;;;;;;;;;;4988033;28;20302;-79
2023/06/21 06:42:18;;;;;;;8.57;7.78;;;;;;;;;;4961747;28;20046;-80
2023/06/21 06:44:43;;;;;;;6.38;5.78;;;;;;;;;;4995025;28;20029;-81
2023/06/21 06:47:09;;;;;;;9.43;7.65;;;;;;;;;;4986112;28;20056;-79
2023/06/21 06:49:34;;;;;;;6.50;5.90;;;;;;;;;;4989147;28;20053;-80
2023/06/21 06:52:00;;;;;;;5.85;5.25;;;;;;;;;;4981868;28;20069;-79
2023/06/21 06:54:25;;;;;;;10.30;7.22;;;;;;;;;;4978902;28;20025;-79
2023/06/21 06:56:51;;;;;;;5.60;5.10;;;;;;;;;;5002517;28;20041;-79
2023/06/21 06:59:16;;;;;;;8.07;6.15;;;;;;;;;;5008552;28;20033;-80
2023/06/21 07:01:42;;;;;;;7.28;6.57;;;;;;;;;;5004179;28;20383;-80
2023/06/21 07:04:07;;;;;;;6.20;5.63;;;;;;;;;;4983757;28;20301;-80
2023/06/21 07:06:35;;;;;;;8.55;6.85;;;;;;;;;;4985293;28;20357;-80
2023/06/21 07:09:02;;;;;;;7.07;6.38;;;;;;;;;;4991345;28;20356;-79
2023/06/21 07:11:28;;;;;;;5.03;4.63;;;;;;;;;;4999232;28;20026;-79
2023/06/21 07:13:53;;;;;;;6.15;5.55;;;;;;;;;;5003939;28;20044;-80
2023/06/21 07:16:20;;;;;;;6.43;5.72;;;;;;;;;;5004564;28;20084;-79
2023/06/21 07:18:45;;;;;;;7.72;6.72;;;;;;;;;;4991950;28;20041;-79
2023/06/21 07:21:11;;;;;;;6.07;5.47;;;;;;;;;;5004116;28;20042;-79
2023/06/21 07:23:36;;;;;;;5.65;5.07;;;;;;;;;;4975514;28;20117;-79
2023/06/21 07:26:02;;;;;;;8.07;6.35;;;;;;;;;;5000697;28;20037;-79
2023/06/21 07:28:28;;;;;;;7.13;6.43;;;;;;;;;;4985540;28;20052;-79
2023/06/21 07:30:54;;;;;;;6.90;6.30;;;;;;;;;;4970339;28;20050;-80
2023/06/21 07:33:19;;;;;;;6.43;5.82;;;;;;;;;;5000049;28;20505;-80
2023/06/21 07:35:44;;;;;;;6.45;5.75;;;;;;;;;;4993676;28;20453;-80
2023/06/21 07:38:10;;;;;;;6.47;5.88;;;;;;;;;;4998306;28;20081;-79
2023/06/21 07:40:35;;;;;;;5.40;4.90;;;;;;;;;;4987403;28;20045;-80
2023/06/21 07:43:01;;;;;;;6.30;5.70;;;;;;;;;;5000783;28;20069;-80
2023/06/21 07:45:26;;;;;;;5.25;4.80;;;;;;;;;;4987728;28;20042;-80
2023/06/21 07:47:52;;;;;;;6.13;5.53;;;;;;;;;;5003315;28;20089;-79
2023/06/21 07:50:17;;;;;;;5.35;4.95;;;;;;;;;;5007423;28;20068;-79
2023/06/21 07:52:42;;;;;;;5.50;4.78;;;;;;;;;;4971400;28;24883;-80
2023/06/21 07:55:11;;;;;;;7.15;6.35;;;;;;;;;;4986145;28;20530;-79
2023/06/21 07:57:37;;;;;;;8.65;6.90;;;;;;;;;;5000320;28;20508;-81
2023/06/21 08:00:09;;;;;;;7.75;6.93;;;;;;;;;;4974197;28;20034;-78
2023/06/21 08:02:35;;;;;;;6.97;5.35;;;;;;;;;;4985572;28;20042;-80
2023/06/21 08:05:00;;;;;;;7.07;6.10;;;;;;;;;;4986905;28;20418;-81
2023/06/21 08:07:26;;;;;;;5.43;4.93;;;;;;;;;;4989705;28;20442;-79
2023/06/21 08:09:51;;;;;;;5.82;5.15;;;;;;;;;;5008810;28;20049;-78
2023/06/21 08:12:16;;;;;;;6.53;5.60;;;;;;;;;;5008418;28;20242;-80
2023/06/21 08:14:42;;;;;;;5.35;4.85;;;;;;;;;;5000320;28;20703;-80
2023/06/21 08:17:07;;;;;;;5.32;4.85;;;;;;;;;;5006132;28;20096;-80
2023/06/21 08:19:32;;;;;;;6.65;5.90;;;;;;;;;;4980846;28;20092;-79
2023/06/21 08:21:58;;;;;;;5.70;5.20;;;;;;;;;;5001618;28;20069;-80
2023/06/21 08:24:26;;;;;;;6.15;5.53;;;;;;;;;;4984694;28;20096;-80
2023/06/21 08:26:52;;;;;;;5.30;4.82;;;;;;;;;;4979093;28;20066;-80
2023/06/21 08:29:17;;;;;;;5.63;4.82;;;;;;;;;;4989738;28;20421;-80
2023/06/21 08:31:43;;;;;;;5.35;4.93;;;;;;;;;;5009811;28;20033;-81
2023/06/21 08:34:08;;;;;;;6.45;5.82;;;;;;;;;;4976553;28;20386;-81
2023/06/21 08:36:33;;;;;;;6.70;5.55;;;;;;;;;;4970291;28;20058;-80
2023/06/21 08:38:59;;;;;;;9.73;6.25;;;;;;;;;;4965960;28;20120;-81
2023/06/21 08:41:26;;;;;;;6.78;6.07;;;;;;;;;;4997996;28;20109;-81
2023/06/21 08:43:51;;;;;;;5.90;5.32;;;;;;;;;;4985045;28;20042;-80
2023/06/21 08:46:20;;;;;;;4.85;4.40;;;;;;;;;;4974944;28;20077;-80
2023/06/21 08:48:50;;;;;;;4.95;4.55;;;;;;;;;;5001320;28;20050;-79
2023/06/21 08:51:16;;;;;;;6.95;5.70;;;;;;;;;;5005810;28;20034;-79
2023/06/21 08:53:49;;;;;;;4.88;4.47;;;;;;;;;;4992053;28;20049;-79
2023/06/21 08:56:19;;;;;;;4.60;4.20;;;;;;;;;;5005074;28;20069;-79
2023/06/21 08:59:06;;;;;;;5.53;5.00;;;;;;;;;;4989952;28;20050;-79
2023/06/21 09:01:42;;;;;;;6.05;5.35;;;;;;;;;;5000692;28;20405;-79
2023/06/21 09:04:11;;;;;;;5.25;4.57;;;;;;;;;;4990060;28;20034;-79
2023/06/21 09:06:37;;;;;;;5.00;4.60;;;;;;;;;;5001930;28;20065;-79
2023/06/21 09:09:02;;;;;;;6.07;4.60;;;;;;;;;;5000570;28;20127;-80
2023/06/21 09:11:28;;;;;;;4.32;3.92;;;;;;;;;;4980655;28;20041;-79
2023/06/21 09:13:54;;;;;;;5.85;5.00;;;;;;;;;;5005322;28;20516;-79
2023/06/21 09:16:19;;;;;;;4.60;4.20;;;;;;;;;;4991355;28;20445;-79
2023/06/21 09:18:46;;;;;;;5.57;4.18;;;;;;;;;;4991428;28;20045;-79
2023/06/21 09:21:12;;;;;;;5.18;4.68;;;;;;;;;;4988841;28;20049;-81
2023/06/21 09:23:39;;;;;;;4.40;4.00;;;;;;;;;;4992196;28;20041;-81
2023/06/21 09:26:05;;;;;;;5.63;4.43;;;;;;;;;;4982882;28;20048;-80
2023/06/21 09:28:31;;;;;;;4.30;3.90;;;;;;;;;;5003265;28;20439;-80
2023/06/21 09:30:57;;;;;;;5.82;4.93;;;;;;;;;;4962047;28;20422;-80
2023/06/21 09:33:26;;;;;;;4.35;3.95;;;;;;;;;;4977628;28;20588;-80
2023/06/21 09:35:52;;;;;;;5.10;3.92;;;;;;;;;;4988359;28;20033;-81
2023/06/21 09:38:31;;;;;;;4.20;3.83;;;;;;;;;;4973076;28;20041;-80
2023/06/21 09:40:56;;;;;;;5.87;4.20;;;;;;;;;;4981855;28;20531;-80
2023/06/21 09:43:22;;;;;;;5.80;4.57;;;;;;;;;;4990592;28;20046;-80
2023/06/21 09:46:09;;;;;;;4.18;3.78;;;;;;;;;;4991293;28;20114;-80
2023/06/21 09:48:36;;;;;;;6.47;4.45;;;;;;;;;;5002850;28;20046;-80
2023/06/21 09:51:03;;;;;;;4.70;4.30;;;;;;;;;;4974555;28;20037;-80
2023/06/21 09:53:29;;;;;;;6.32;5.03;;;;;;;;;;4982536;28;20113;-79
2023/06/21 09:56:00;;;;;;;5.10;4.65;;;;;;;;;;4985316;28;20400;-79
2023/06/21 09:58:25;;;;;;;5.32;4.15;;;;;;;;;;4984898;28;20037;-79
2023/06/21 10:00:51;;;;;;;5.55;4.40;;;;;;;;;;4992304;28;20045;-79
2023/06/21 10:03:22;;;;;;;5.50;4.10;;;;;;;;;;4998054;28;20104;-79
2023/06/21 10:05:54;;;;;;;3.80;3.50;;;;;;;;;;4995095;28;20042;-79
2023/06/21 10:08:27;;;;;;;4.10;3.80;;;;;;;;;;5005736;28;20041;-79
2023/06/21 10:10:52;;;;;;;3.95;3.65;;;;;;;;;;5001346;28;20573;-80
2023/06/21 10:13:28;;;;;;;4.65;4.25;;;;;;;;;;4987211;28;20133;-79
2023/06/21 10:15:56;;;;;;;5.03;4.28;;;;;;;;;;4984169;28;20034;-79
2023/06/21 10:18:23;;;;;;;4.40;3.95;;;;;;;;;;4987343;28;20044;-79
2023/06/21 10:21:01;;;;;;;4.90;4.40;;;;;;;;;;5002899;28;20041;-79
2023/06/21 10:23:36;;;;;;;4.32;3.92;;;;;;;;;;5000991;28;20025;-79
2023/06/21 10:26:04;;;;;;;4.90;4.47;;;;;;;;;;5002677;22;20058;-78
2023/06/21 10:28:35;;;;;;;3.92;3.45;;;;;;;;;;4959661;28;20047;-78
2023/06/21 10:31:03;;;;;;;5.35;4.85;;;;;;;;;;4968482;28;20146;-77
2023/06/21 10:33:32;;;;;;;4.82;4.43;;;;;;;;;;4975876;28;20462;-77
2023/06/21 10:36:01;;;;;;;8.82;4.35;;;;;;;;;;4976636;28;20049;-77
2023/06/21 10:38:35;;;;;;;4.00;3.70;;;;;;;;;;4970584;28;20031;-77
2023/06/21 10:41:04;;;;;;;5.05;4.50;;;;;;;;;;4941637;28;20038;-77
2023/06/21 10:43:29;;;;;;;4.40;4.00;;;;;;;;;;4973330;28;20049;-77
2023/06/21 10:45:56;;;;;;;4.63;4.22;;;;;;;;;;4945341;28;20097;-78
2023/06/21 10:48:23;;;;;;;3.80;3.47;;;;;;;;;;4958190;28;20035;-77
2023/06/21 10:50:50;;;;;;;5.90;5.35;;;;;;;;;;4964678;28;20507;-78
2023/06/21 10:53:18;;;;;;;5.93;4.68;;;;;;;;;;4965756;28;20035;-78
2023/06/21 10:55:43;;;;;;;5.13;4.70;;;;;;;;;;4976859;28;20538;-78
2023/06/21 10:58:10;;;;;;;4.45;4.05;;;;;;;;;;4975990;28;20117;-78
2023/06/21 11:00:35;;;;;;;3.60;3.30;;;;;;;;;;4966911;28;20042;-77
2023/06/21 11:03:01;;;;;;;5.13;4.63;;;;;;;;;;4963435;28;20043;-77
2023/06/21 11:05:27;;;;;;;4.13;3.80;;;;;;;;;;4959307;28;20043;-77
2023/06/21 11:08:06;;;;;;;5.07;4.57;;;;;;;;;;4963828;28;20101;-78
2023/06/21 11:10:49;;;;;;;5.45;4.95;;;;;;;;;;4964984;28;20045;-77
2023/06/21 11:13:17;;;;;;;5.28;4.78;;;;;;;;;;4958548;28;20067;-77
2023/06/21 11:15:45;;;;;;;4.90;4.50;;;;;;;;;;4969467;28;20105;-77
2023/06/21 11:18:18;;;;;;;5.45;4.60;;;;;;;;;;4944950;28;20783;-78
2023/06/21 11:20:49;;;;;;;8.25;5.10;;;;;;;;;;4957263;28;20081;-77
2023/06/21 11:23:16;;;;;;;5.30;4.80;;;;;;;;;;4968536;28;20539;-77
2023/06/21 11:26:01;;;;;;;6.20;5.13;;;;;;;;;;4961921;28;20515;-78
2023/06/21 11:28:31;;;;;;;5.07;4.57;;;;;;;;;;4956795;28;20030;-77
2023/06/21 11:31:12;;;;;;;5.50;4.22;;;;;;;;;;4956210;28;20123;-78
2023/06/21 11:33:57;;;;;;;4.28;3.78;;;;;;;;;;4972017;28;20039;-77
2023/06/21 11:36:25;;;;;;;5.50;4.95;;;;;;;;;;4967036;28;20038;-78
2023/06/21 11:39:04;;;;;;;4.20;3.80;;;;;;;;;;4965216;28;20034;-78
2023/06/21 11:41:34;;;;;;;5.30;4.80;;;;;;;;;;4953960;28;20268;-78
2023/06/21 11:43:59;;;;;;;5.70;5.20;;;;;;;;;;4951826;28;20058;-77
2023/06/21 11:46:25;;;;;;;7.03;5.40;;;;;;;;;;4966424;28;20046;-78
2023/06/21 11:48:58;;;;;;;6.72;5.10;;;;;;;;;;4978081;28;20041;-78
2023/06/21 11:51:24;;;;;;;5.15;4.75;;;;;;;;;;4951122;28;20050;-78
2023/06/21 11:53:50;;;;;;;4.60;4.20;;;;;;;;;;4974496;28;20030;-78
2023/06/21 11:56:19;;;;;;;4.30;4.00;;;;;;;;;;4956594;28;20069;-77
2023/06/21 11:58:50;;;;;;;5.67;5.07;;;;;;;;;;4962872;28;20046;-77
2023/06/21 12:01:15;;;;;;;4.20;3.80;;;;;;;;;;4975736;28;20288;-77
2023/06/21 12:03:41;;;;;;;5.43;4.95;;;;;;;;;;4962842;28;20499;-77
2023/06/21 12:06:07;;;;;;;6.28;4.50;;;;;;;;;;4924773;28;20083;-78
2023/06/21 12:08:39;;;;;;;6.63;4.60;;;;;;;;;;4967483;28;20039;-78
2023/06/21 12:11:09;;;;;;;4.95;4.47;;;;;;;;;;4954099;28;20659;-77
2023/06/21 12:13:35;;;;;;;4.25;3.83;;;;;;;;;;4966715;28;20454;-78
2023/06/21 12:16:02;;;;;;;6.65;4.63;;;;;;;;;;4972919;28;20034;-77
2023/06/21 12:18:29;;;;;;;4.35;3.97;;;;;;;;;;4962429;28;20049;-77
2023/06/21 12:20:57;;;;;;;5.07;4.57;;;;;;;;;;4973074;28;20046;-78
2023/06/21 12:23:22;;;;;;;5.38;4.53;;;;;;;;;;4958812;28;20255;-78
2023/06/21 12:25:49;;;;;;;5.43;4.20;;;;;;;;;;4969272;28;20531;-77
2023/06/21 12:28:17;;;;;;;4.53;4.13;;;;;;;;;;4974497;28;20074;-78
2023/06/21 12:31:06;;;;;;;4.90;4.50;;;;;;;;;;4957466;28;20043;-78
2023/06/21 12:33:37;;;;;;;6.78;4.65;;;;;;;;;;4952464;28;20046;-78
2023/06/21 12:36:23;;;;;;;4.00;3.58;;;;;;;;;;4971909;28;20045;-79
2023/06/21 12:39:02;;;;;;;4.70;4.28;;;;;;;;;;4961684;28;20038;-78
2023/06/21 12:41:32;;;;;;;4.90;4.40;;;;;;;;;;4930773;28;20058;-79
2023/06/21 12:43:59;;;;;;;;;;;;;;;;;;4946594;28;20046;-78
2023/06/21 12:46:26;;;;;;;5.10;4.70;;;;;;;;;;4962667;28;20755;-77
2023/06/21 12:48:58;;;;;;;6.90;4.93;;;;;;;;;;4950958;28;20454;-77
2023/06/21 12:51:31;;;;;;;5.10;4.68;;;;;;;;;;4946513;28;20051;-77
2023/06/21 12:54:09;;;;;;;4.47;4.00;;;;;;;;;;4931860;28;20518;-78
2023/06/21 12:56:39;;;;;;;4.80;4.35;;;;;;;;;;4949472;28;20340;-77
2023/06/21 12:59:05;;;;;;;;;;;;;;;;;;4950785;28;20035;-77
2023/06/21 13:01:34;;;;;;;6.68;3.95;;;;;;;;;;4961418;28;19922;-77
2023/06/21 13:04:03;;;;;;;5.10;4.57;;;;;;;;;;4959816;28;20041;-75
2023/06/21 13:06:28;;;;;;;4.80;4.30;;;;;;;;;;4967373;28;20042;-75
2023/06/21 13:08:54;;;;;;;4.55;4.13;;;;;;;;;;4972340;28;20400;-78
2023/06/21 13:11:20;;;;;;;5.55;4.75;;;;;;;;;;4962547;28;20053;-78
2023/06/21 13:13:46;;;;;;;5.22;4.68;;;;;;;;;;4948806;28;20038;-76
2023/06/21 13:16:12;;;;;;;5.47;4.72;;;;;;;;;;4968247;28;20427;-76
2023/06/21 13:18:44;;;;;;;4.88;4.30;;;;;;;;;;4943558;28;20073;-76
2023/06/21 13:21:13;;;;;;;5.28;4.88;;;;;;;;;;4950427;28;20039;-76
2023/06/21 13:23:38;;;;;;;5.03;4.63;;;;;;;;;;4964694;28;20475;-76
2023/06/21 13:26:04;;;;;;;5.82;4.10;;;;;;;;;;4965111;28;20145;-76
2023/06/21 13:28:29;;;;;;;4.85;4.45;;;;;;;;;;4953478;28;20035;-76
2023/06/21 13:30:55;;;;;;;4.00;3.70;;;;;;;;;;4947224;28;20055;-77
2023/06/21 13:33:20;;;;;;;5.63;4.78;;;;;;;;;;4938249;28;20062;-77
2023/06/21 13:35:46;;;;;;;5.20;4.63;;;;;;;;;;4965087;28;20506;-77
2023/06/21 13:38:15;;;;;;;4.68;4.38;;;;;;;;;;4954541;28;20091;-78
2023/06/21 13:40:41;;;;;;;4.75;4.35;;;;;;;;;;4939321;28;20121;-77
2023/06/21 13:43:07;;;;;;;4.82;4.32;;;;;;;;;;4954578;28;20532;-78
2023/06/21 13:45:32;;;;;;;8.15;5.30;;;;;;;;;;4941691;28;20050;-77
2023/06/21 13:47:57;;;;;;;5.38;4.53;;;;;;;;;;4951886;28;20129;-78
2023/06/21 13:50:23;;;;;;;7.15;4.35;;;;;;;;;;4954744;28;20117;-77
2023/06/21 13:52:48;;;;;;;4.72;4.10;;;;;;;;;;4964427;28;20050;-77
2023/06/21 13:55:14;;;;;;;5.25;4.60;;;;;;;;;;4956783;28;20066;-77
2023/06/21 13:57:42;;;;;;;5.47;4.93;;;;;;;;;;4958353;28;20086;-77
2023/06/21 14:00:14;;;;;;;5.93;5.15;;;;;;;;;;4963100;28;20045;-76
2023/06/21 14:02:41;;;;;;;5.30;4.80;;;;;;;;;;4967414;28;20089;-76
2023/06/21 14:05:08;;;;;;;5.30;4.90;;;;;;;;;;4951667;28;20070;-76
2023/06/21 14:07:34;;;;;;;5.65;4.90;;;;;;;;;;4957526;28;20640;-76
2023/06/21 14:10:00;;;;;;;5.15;4.65;;;;;;;;;;4948065;28;20057;-76
2023/06/21 14:12:26;;;;;;;3.63;3.33;;;;;;;;;;4953047;28;20487;-76
2023/06/21 14:14:51;;;;;;;5.15;4.65;;;;;;;;;;4969354;28;20062;-77
2023/06/21 14:17:17;;;;;;;5.40;4.88;;;;;;;;;;4951695;28;20517;-77
2023/06/21 14:19:42;;;;;;;4.22;3.80;;;;;;;;;;4950224;28;20126;-76
2023/06/21 14:22:12;;;;;;;6.00;5.40;;;;;;;;;;4953664;28;20551;-77
2023/06/21 14:24:38;;;;;;;7.85;5.03;;;;;;;;;;4968572;28;20038;-76
2023/06/21 14:27:04;;;;;;;5.38;4.88;;;;;;;;;;4933345;28;20169;-75
2023/06/21 14:29:30;;;;;;;5.53;5.03;;;;;;;;;;4943027;28;20458;-76
2023/06/21 14:31:56;;;;;;;5.47;4.90;;;;;;;;;;4965283;28;20051;-77
2023/06/21 14:34:22;;;;;;;6.00;4.95;;;;;;;;;;4953140;28;20049;-75
2023/06/21 14:36:47;;;;;;;5.55;5.05;;;;;;;;;;4948603;28;20571;-77
2023/06/21 14:39:13;;;;;;;4.55;3.90;;;;;;;;;;4930325;28;20111;-76
2023/06/21 14:41:38;;;;;;;3.83;3.53;;;;;;;;;;4933620;28;20103;-76
2023/06/21 14:44:03;;;;;;;5.10;4.35;;;;;;;;;;4966115;28;20609;-76